sensor_id;sensor_type;location;lat;lon;timestamp;pressure;altitude;pressure_sealevel;temperature;humidity
5966;BME280;3009;43.224;27.976;2023-03-13T00:01:29;100829.81;;;2.92;81.46
5966;BME280;3009;43.224;27.976;2023-03-13T00:03:58;100840.06;;;2.88;81.35
5966;BME280;3009;43.224;27.976;2023-03-13T00:06:29;100835.50;;;2.83;81.13
5966;BME280;3009;43.224;27.976;2023-03-13T00:09:00;100839.63;;;2.74;81.36
5966;BME280;3009;43.224;27.976;2023-03-13T00:11:32;100838.09;;;2.78;81.01
5966;BME280;3009;43.224;27.976;2023-03-13T00:14:02;100837.06;;;2.79;80.50
5966;BME280;3009;43.224;27.976;2023-03-13T00:16:32;100837.84;;;2.80;80.02
5966;BME280;3009;43.224;27.976;2023-03-13T00:19:04;100844.44;;;2.77;79.60
5966;BME280;3009;43.224;27.976;2023-03-13T00:21:34;100843.53;;;2.72;80.12
5966;BME280;3009;43.224;27.976;2023-03-13T00:24:04;100844.63;;;2.71;80.29
5966;BME280;3009;43.224;27.976;2023-03-13T00:26:40;100840.84;;;2.66;80.06
5966;BME280;3009;43.224;27.976;2023-03-13T00:29:08;100833.38;;;2.63;79.80
5966;BME280;3009;43.224;27.976;2023-03-13T00:31:37;100837.31;;;2.61;79.70
5966;BME280;3009;43.224;27.976;2023-03-13T00:34:06;100846.22;;;2.55;79.71
5966;BME280;3009;43.224;27.976;2023-03-13T00:36:35;100838.03;;;2.56;79.65
5966;BME280;3009;43.224;27.976;2023-03-13T00:39:04;100844.31;;;2.50;79.78
5966;BME280;3009;43.224;27.976;2023-03-13T00:41:35;100850.09;;;2.47;80.67
5966;BME280;3009;43.224;27.976;2023-03-13T00:44:05;100844.47;;;2.43;79.96
5966;BME280;3009;43.224;27.976;2023-03-13T00:46:34;100844.00;;;2.46;79.40
5966;BME280;3009;43.224;27.976;2023-03-13T00:49:03;100840.47;;;2.41;79.92
5966;BME280;3009;43.224;27.976;2023-03-13T00:51:33;100838.63;;;2.41;79.82
5966;BME280;3009;43.224;27.976;2023-03-13T00:54:01;100838.25;;;2.33;80.28
5966;BME280;3009;43.224;27.976;2023-03-13T00:56:31;100842.94;;;2.30;80.61
5966;BME280;3009;43.224;27.976;2023-03-13T00:59:00;100843.53;;;2.33;79.99
5966;BME280;3009;43.224;27.976;2023-03-13T01:01:31;100852.31;;;2.38;79.11
5966;BME280;3009;43.224;27.976;2023-03-13T01:04:02;100855.88;;;2.44;77.98
5966;BME280;3009;43.224;27.976;2023-03-13T01:06:33;100848.34;;;2.36;79.13
5966;BME280;3009;43.224;27.976;2023-03-13T01:09:03;100852.16;;;2.28;78.94
5966;BME280;3009;43.224;27.976;2023-03-13T01:11:34;100856.13;;;2.25;79.67
5966;BME280;3009;43.224;27.976;2023-03-13T01:14:04;100864.13;;;2.30;78.95
5966;BME280;3009;43.224;27.976;2023-03-13T01:16:36;100850.41;;;2.34;77.72
5966;BME280;3009;43.224;27.976;2023-03-13T01:19:06;100856.03;;;2.37;77.23
5966;BME280;3009;43.224;27.976;2023-03-13T01:21:38;100858.19;;;2.23;78.78
5966;BME280;3009;43.224;27.976;2023-03-13T01:24:07;100856.97;;;2.14;79.11
5966;BME280;3009;43.224;27.976;2023-03-13T01:26:35;100862.50;;;2.12;78.70
5966;BME280;3009;43.224;27.976;2023-03-13T01:29:04;100862.50;;;2.12;79.05
5966;BME280;3009;43.224;27.976;2023-03-13T01:31:35;100861.47;;;2.13;78.44
5966;BME280;3009;43.224;27.976;2023-03-13T01:34:04;100875.34;;;2.21;77.60
5966;BME280;3009;43.224;27.976;2023-03-13T01:36:35;100866.03;;;2.18;78.39
5966;BME280;3009;43.224;27.976;2023-03-13T01:39:05;100863.22;;;2.25;77.42
5966;BME280;3009;43.224;27.976;2023-03-13T01:41:34;100869.91;;;2.27;77.54
5966;BME280;3009;43.224;27.976;2023-03-13T01:44:02;100869.16;;;2.32;76.93
5966;BME280;3009;43.224;27.976;2023-03-13T01:46:32;100870.63;;;2.40;76.16
5966;BME280;3009;43.224;27.976;2023-03-13T01:49:04;100879.03;;;2.37;76.22
5966;BME280;3009;43.224;27.976;2023-03-13T01:51:37;100883.06;;;2.39;75.54
5966;BME280;3009;43.224;27.976;2023-03-13T01:54:08;100884.25;;;2.32;76.07
5966;BME280;3009;43.224;27.976;2023-03-13T01:56:42;100885.78;;;2.27;76.94
5966;BME280;3009;43.224;27.976;2023-03-13T01:59:14;100886.34;;;2.29;76.27
5966;BME280;3009;43.224;27.976;2023-03-13T02:01:45;100902.84;;;2.37;75.34
5966;BME280;3009;43.224;27.976;2023-03-13T02:04:18;100905.59;;;2.42;75.29
5966;BME280;3009;43.224;27.976;2023-03-13T02:06:51;100915.22;;;2.48;74.68
5966;BME280;3009;43.224;27.976;2023-03-13T02:09:23;100916.13;;;2.54;74.30
5966;BME280;3009;43.224;27.976;2023-03-13T02:11:57;100917.31;;;2.63;73.49
5966;BME280;3009;43.224;27.976;2023-03-13T02:14:28;100919.56;;;2.54;74.11
5966;BME280;3009;43.224;27.976;2023-03-13T02:16:59;100922.69;;;2.51;74.04
5966;BME280;3009;43.224;27.976;2023-03-13T02:19:34;100925.78;;;2.82;72.63
5966;BME280;3009;43.224;27.976;2023-03-13T02:22:10;100924.75;;;2.83;72.22
5966;BME280;3009;43.224;27.976;2023-03-13T02:24:43;100931.81;;;2.77;72.57
5966;BME280;3009;43.224;27.976;2023-03-13T02:27:19;100945.22;;;2.71;73.14
5966;BME280;3009;43.224;27.976;2023-03-13T02:29:48;100945.00;;;2.55;74.12
5966;BME280;3009;43.224;27.976;2023-03-13T02:32:17;100956.44;;;2.61;73.61
5966;BME280;3009;43.224;27.976;2023-03-13T02:34:47;100953.31;;;2.64;73.21
5966;BME280;3009;43.224;27.976;2023-03-13T02:37:18;100956.38;;;2.73;72.57
5966;BME280;3009;43.224;27.976;2023-03-13T02:39:49;100959.91;;;2.78;72.06
5966;BME280;3009;43.224;27.976;2023-03-13T02:42:21;100950.66;;;2.64;73.07
5966;BME280;3009;43.224;27.976;2023-03-13T02:44:50;100959.16;;;2.49;74.11
5966;BME280;3009;43.224;27.976;2023-03-13T02:47:20;100961.81;;;2.49;74.02
5966;BME280;3009;43.224;27.976;2023-03-13T02:49:49;100971.06;;;2.46;74.05
5966;BME280;3009;43.224;27.976;2023-03-13T02:52:21;100970.00;;;2.47;73.90
5966;BME280;3009;43.224;27.976;2023-03-13T02:54:54;100976.78;;;2.26;75.72
5966;BME280;3009;43.224;27.976;2023-03-13T02:57:27;100978.66;;;2.14;76.91
5966;BME280;3009;43.224;27.976;2023-03-13T02:59:57;100977.41;;;2.17;76.42
5966;BME280;3009;43.224;27.976;2023-03-13T03:02:26;100981.63;;;2.29;75.59
5966;BME280;3009;43.224;27.976;2023-03-13T03:04:55;100979.88;;;2.52;74.37
5966;BME280;3009;43.224;27.976;2023-03-13T03:07:24;100971.78;;;2.59;73.97
5966;BME280;3009;43.224;27.976;2023-03-13T03:09:52;100976.66;;;2.50;74.58
5966;BME280;3009;43.224;27.976;2023-03-13T03:12:21;100984.47;;;2.28;76.19
5966;BME280;3009;43.224;27.976;2023-03-13T03:14:51;100985.25;;;2.11;77.07
5966;BME280;3009;43.224;27.976;2023-03-13T03:17:19;101005.53;;;1.94;78.92
5966;BME280;3009;43.224;27.976;2023-03-13T03:19:48;101005.69;;;1.87;79.28
5966;BME280;3009;43.224;27.976;2023-03-13T03:22:16;100995.34;;;1.86;79.53
5966;BME280;3009;43.224;27.976;2023-03-13T03:24:45;100992.22;;;1.89;79.16
5966;BME280;3009;43.224;27.976;2023-03-13T03:27:14;101005.69;;;1.87;79.26
5966;BME280;3009;43.224;27.976;2023-03-13T03:29:42;100998.34;;;1.77;80.14
5966;BME280;3009;43.224;27.976;2023-03-13T03:32:12;101007.44;;;1.70;80.96
5966;BME280;3009;43.224;27.976;2023-03-13T03:34:41;101010.41;;;1.73;80.74
5966;BME280;3009;43.224;27.976;2023-03-13T03:37:09;101006.69;;;1.98;79.61
5966;BME280;3009;43.224;27.976;2023-03-13T03:39:38;101000.78;;;2.08;79.12
5966;BME280;3009;43.224;27.976;2023-03-13T03:42:07;101009.16;;;2.17;79.00
5966;BME280;3009;43.224;27.976;2023-03-13T03:44:36;101006.25;;;2.18;78.66
5966;BME280;3009;43.224;27.976;2023-03-13T03:47:05;101013.81;;;2.26;78.74
5966;BME280;3009;43.224;27.976;2023-03-13T03:49:35;101014.63;;;2.27;78.57
5966;BME280;3009;43.224;27.976;2023-03-13T03:52:04;101010.31;;;2.09;78.99
5966;BME280;3009;43.224;27.976;2023-03-13T03:54:32;101011.81;;;2.05;79.43
5966;BME280;3009;43.224;27.976;2023-03-13T03:57:01;101007.47;;;1.99;79.51
5966;BME280;3009;43.224;27.976;2023-03-13T03:59:30;101012.63;;;2.05;79.24
5966;BME280;3009;43.224;27.976;2023-03-13T04:01:58;101017.84;;;1.88;80.48
5966;BME280;3009;43.224;27.976;2023-03-13T04:04:27;101013.03;;;1.85;80.73
5966;BME280;3009;43.224;27.976;2023-03-13T04:06:57;101013.91;;;2.03;79.46
5966;BME280;3009;43.224;27.976;2023-03-13T04:09:26;101022.19;;;1.94;79.90
5966;BME280;3009;43.224;27.976;2023-03-13T04:11:57;101021.91;;;1.79;80.91
5966;BME280;3009;43.224;27.976;2023-03-13T04:14:26;101028.13;;;1.73;81.84
5966;BME280;3009;43.224;27.976;2023-03-13T04:16:54;101030.06;;;1.77;81.60
5966;BME280;3009;43.224;27.976;2023-03-13T04:19:22;101032.47;;;1.79;81.49
5966;BME280;3009;43.224;27.976;2023-03-13T04:21:51;101037.66;;;1.74;81.87
5966;BME280;3009;43.224;27.976;2023-03-13T04:24:21;101052.72;;;1.73;82.27
5966;BME280;3009;43.224;27.976;2023-03-13T04:26:49;101049.16;;;1.68;83.28
5966;BME280;3009;43.224;27.976;2023-03-13T04:29:17;101057.44;;;1.59;84.12
5966;BME280;3009;43.224;27.976;2023-03-13T04:31:45;101049.75;;;1.46;84.12
5966;BME280;3009;43.224;27.976;2023-03-13T04:34:14;101062.84;;;1.41;84.84
5966;BME280;3009;43.224;27.976;2023-03-13T04:36:42;101062.50;;;1.49;84.31
5966;BME280;3009;43.224;27.976;2023-03-13T04:39:11;101055.16;;;1.51;83.35
5966;BME280;3009;43.224;27.976;2023-03-13T04:41:41;101063.09;;;1.51;83.54
5966;BME280;3009;43.224;27.976;2023-03-13T04:44:09;101071.25;;;1.50;83.82
5966;BME280;3009;43.224;27.976;2023-03-13T04:46:37;101071.13;;;1.56;83.85
5966;BME280;3009;43.224;27.976;2023-03-13T04:49:06;101069.84;;;1.71;84.53
5966;BME280;3009;43.224;27.976;2023-03-13T04:51:35;101076.84;;;1.89;84.42
5966;BME280;3009;43.224;27.976;2023-03-13T04:54:03;101073.69;;;2.04;84.22
5966;BME280;3009;43.224;27.976;2023-03-13T04:56:32;101077.50;;;2.08;84.08
5966;BME280;3009;43.224;27.976;2023-03-13T04:59:12;101083.59;;;2.08;84.39
5966;BME280;3009;43.224;27.976;2023-03-13T05:01:41;101081.59;;;2.16;84.27
5966;BME280;3009;43.224;27.976;2023-03-13T05:04:10;101094.63;;;2.46;82.85
5966;BME280;3009;43.224;27.976;2023-03-13T05:06:39;101106.06;;;2.92;80.15
5966;BME280;3009;43.224;27.976;2023-03-13T05:09:07;101102.00;;;3.18;77.37
5966;BME280;3009;43.224;27.976;2023-03-13T05:11:36;101104.47;;;3.59;74.88
5966;BME280;3009;43.224;27.976;2023-03-13T05:14:06;101107.38;;;4.14;72.09
5966;BME280;3009;43.224;27.976;2023-03-13T05:16:38;101098.22;;;5.08;67.11
5966;BME280;3009;43.224;27.976;2023-03-13T05:19:06;101111.53;;;5.08;65.49
5966;BME280;3009;43.224;27.976;2023-03-13T05:21:35;101114.50;;;4.85;65.93
5966;BME280;3009;43.224;27.976;2023-03-13T05:24:04;101112.78;;;4.73;66.24
5966;BME280;3009;43.224;27.976;2023-03-13T05:26:32;101116.09;;;4.86;65.85
5966;BME280;3009;43.224;27.976;2023-03-13T05:29:01;101124.94;;;4.91;64.70
5966;BME280;3009;43.224;27.976;2023-03-13T05:31:29;101125.72;;;4.92;64.62
5966;BME280;3009;43.224;27.976;2023-03-13T05:33:59;101123.53;;;4.84;65.39
5966;BME280;3009;43.224;27.976;2023-03-13T05:36:28;101129.44;;;4.91;64.32
5966;BME280;3009;43.224;27.976;2023-03-13T05:38:56;101135.91;;;5.00;63.48
5966;BME280;3009;43.224;27.976;2023-03-13T05:41:25;101133.03;;;5.07;63.14
5966;BME280;3009;43.224;27.976;2023-03-13T05:43:53;101130.41;;;5.39;62.12
5966;BME280;3009;43.224;27.976;2023-03-13T05:46:22;101132.28;;;6.29;58.81
5966;BME280;3009;43.224;27.976;2023-03-13T05:48:50;101143.16;;;7.27;54.90
5966;BME280;3009;43.224;27.976;2023-03-13T05:51:21;101146.31;;;7.86;55.76
5966;BME280;3009;43.224;27.976;2023-03-13T05:53:49;101152.38;;;8.12;59.11
5966;BME280;3009;43.224;27.976;2023-03-13T05:56:18;101148.53;;;8.49;52.20
5966;BME280;3009;43.224;27.976;2023-03-13T05:58:46;101146.81;;;7.98;55.32
5966;BME280;3009;43.224;27.976;2023-03-13T06:01:15;101150.50;;;9.22;54.10
5966;BME280;3009;43.224;27.976;2023-03-13T06:03:43;101160.31;;;9.32;50.20
5966;BME280;3009;43.224;27.976;2023-03-13T06:06:11;101159.66;;;8.66;48.91
5966;BME280;3009;43.224;27.976;2023-03-13T06:08:42;101157.22;;;9.15;54.54
5966;BME280;3009;43.224;27.976;2023-03-13T06:11:11;101158.56;;;9.52;53.88
5966;BME280;3009;43.224;27.976;2023-03-13T06:13:39;101158.56;;;10.73;50.41
5966;BME280;3009;43.224;27.976;2023-03-13T06:16:08;101164.59;;;10.84;49.03
5966;BME280;3009;43.224;27.976;2023-03-13T06:18:36;101169.22;;;10.59;48.70
5966;BME280;3009;43.224;27.976;2023-03-13T06:21:05;101177.06;;;10.55;47.92
5966;BME280;3009;43.224;27.976;2023-03-13T06:23:34;101172.22;;;10.28;44.91
5966;BME280;3009;43.224;27.976;2023-03-13T06:26:04;101171.75;;;11.26;40.84
5966;BME280;3009;43.224;27.976;2023-03-13T06:28:32;101169.09;;;11.73;38.58
5966;BME280;3009;43.224;27.976;2023-03-13T06:31:01;101160.38;;;10.77;38.95
5966;BME280;3009;43.224;27.976;2023-03-13T06:33:30;101172.59;;;11.41;39.89
5966;BME280;3009;43.224;27.976;2023-03-13T06:35:59;101170.56;;;10.37;39.83
5966;BME280;3009;43.224;27.976;2023-03-13T06:38:29;101179.16;;;10.58;38.68
5966;BME280;3009;43.224;27.976;2023-03-13T06:40:58;101177.78;;;10.37;38.94
5966;BME280;3009;43.224;27.976;2023-03-13T06:43:28;101174.38;;;10.31;39.24
5966;BME280;3009;43.224;27.976;2023-03-13T06:46:02;101175.47;;;10.25;39.13
5966;BME280;3009;43.224;27.976;2023-03-13T06:48:31;101167.94;;;9.79;40.21
5966;BME280;3009;43.224;27.976;2023-03-13T06:50:59;101172.16;;;10.38;40.21
5966;BME280;3009;43.224;27.976;2023-03-13T06:53:28;101169.69;;;9.64;40.36
5966;BME280;3009;43.224;27.976;2023-03-13T06:55:59;101171.34;;;9.26;41.87
5966;BME280;3009;43.224;27.976;2023-03-13T06:58:29;101186.81;;;8.94;48.74
5966;BME280;3009;43.224;27.976;2023-03-13T07:00:59;101172.28;;;8.56;49.35
5966;BME280;3009;43.224;27.976;2023-03-13T07:03:27;101178.03;;;8.03;45.95
5966;BME280;3009;43.224;27.976;2023-03-13T07:05:56;101175.44;;;7.51;45.75
5966;BME280;3009;43.224;27.976;2023-03-13T07:08:26;101177.84;;;7.48;46.00
5966;BME280;3009;43.224;27.976;2023-03-13T07:10:58;101172.50;;;7.32;45.91
5966;BME280;3009;43.224;27.976;2023-03-13T07:13:27;101179.19;;;7.45;46.11
5966;BME280;3009;43.224;27.976;2023-03-13T07:16:00;101171.16;;;7.35;46.88
5966;BME280;3009;43.224;27.976;2023-03-13T07:18:31;101177.28;;;7.20;47.79
5966;BME280;3009;43.224;27.976;2023-03-13T07:21:02;101182.63;;;7.20;48.17
5966;BME280;3009;43.224;27.976;2023-03-13T07:23:34;101184.50;;;7.14;48.62
5966;BME280;3009;43.224;27.976;2023-03-13T07:26:05;101196.75;;;7.15;48.00
5966;BME280;3009;43.224;27.976;2023-03-13T07:28:34;101181.81;;;7.09;48.44
5966;BME280;3009;43.224;27.976;2023-03-13T07:31:07;101188.47;;;7.06;47.67
5966;BME280;3009;43.224;27.976;2023-03-13T07:33:37;101191.41;;;6.95;48.30
5966;BME280;3009;43.224;27.976;2023-03-13T07:36:07;101192.72;;;6.97;47.64
5966;BME280;3009;43.224;27.976;2023-03-13T07:38:36;101185.53;;;6.98;47.42
5966;BME280;3009;43.224;27.976;2023-03-13T07:41:06;101197.31;;;7.17;46.99
5966;BME280;3009;43.224;27.976;2023-03-13T07:43:36;101182.34;;;7.21;46.66
5966;BME280;3009;43.224;27.976;2023-03-13T07:46:09;101189.31;;;7.38;47.22
5966;BME280;3009;43.224;27.976;2023-03-13T07:48:41;101188.25;;;7.39;43.98
5966;BME280;3009;43.224;27.976;2023-03-13T07:51:12;101190.38;;;7.26;37.61
5966;BME280;3009;43.224;27.976;2023-03-13T07:53:41;101192.00;;;7.48;43.98
5966;BME280;3009;43.224;27.976;2023-03-13T07:56:11;101188.25;;;7.44;42.37
5966;BME280;3009;43.224;27.976;2023-03-13T07:58:41;101178.91;;;7.31;42.05
5966;BME280;3009;43.224;27.976;2023-03-13T08:01:13;101184.50;;;7.45;42.18
5966;BME280;3009;43.224;27.976;2023-03-13T08:03:42;101193.59;;;7.59;41.71
5966;BME280;3009;43.224;27.976;2023-03-13T08:06:12;101196.25;;;7.34;43.45
5966;BME280;3009;43.224;27.976;2023-03-13T08:08:42;101210.63;;;7.07;42.46
5966;BME280;3009;43.224;27.976;2023-03-13T08:11:12;101202.09;;;7.31;43.32
5966;BME280;3009;43.224;27.976;2023-03-13T08:13:41;101199.44;;;7.36;39.70
5966;BME280;3009;43.224;27.976;2023-03-13T08:16:12;101192.78;;;7.38;40.13
5966;BME280;3009;43.224;27.976;2023-03-13T08:18:42;101192.78;;;7.49;40.81
5966;BME280;3009;43.224;27.976;2023-03-13T08:21:13;101201.31;;;7.87;40.64
5966;BME280;3009;43.224;27.976;2023-03-13T08:23:42;101203.72;;;7.78;41.11
5966;BME280;3009;43.224;27.976;2023-03-13T08:26:11;101204.81;;;7.61;41.62
5966;BME280;3009;43.224;27.976;2023-03-13T08:28:40;101195.69;;;7.73;40.64
5966;BME280;3009;43.224;27.976;2023-03-13T08:31:12;101187.72;;;7.78;40.09
5966;BME280;3009;43.224;27.976;2023-03-13T08:33:42;101188.75;;;7.92;41.70
5966;BME280;3009;43.224;27.976;2023-03-13T08:36:11;101192.25;;;7.67;41.90
5966;BME280;3009;43.224;27.976;2023-03-13T08:38:40;101197.03;;;7.39;43.06
5966;BME280;3009;43.224;27.976;2023-03-13T08:41:13;101186.38;;;7.50;43.70
5966;BME280;3009;43.224;27.976;2023-03-13T08:43:42;101194.38;;;7.39;44.26
5966;BME280;3009;43.224;27.976;2023-03-13T08:46:12;101197.88;;;7.66;44.26
5966;BME280;3009;43.224;27.976;2023-03-13T08:48:48;101188.78;;;7.82;44.66
5966;BME280;3009;43.224;27.976;2023-03-13T08:51:27;101196.78;;;7.72;44.37
5966;BME280;3009;43.224;27.976;2023-03-13T08:53:56;101198.38;;;7.68;44.73
5966;BME280;3009;43.224;27.976;2023-03-13T08:56:26;101201.06;;;7.62;44.98
5966;BME280;3009;43.224;27.976;2023-03-13T08:58:57;101200.50;;;7.86;45.95
5966;BME280;3009;43.224;27.976;2023-03-13T09:01:28;101208.75;;;8.15;46.62
5966;BME280;3009;43.224;27.976;2023-03-13T09:03:57;101204.22;;;8.11;45.14
5966;BME280;3009;43.224;27.976;2023-03-13T09:06:30;101202.34;;;8.11;44.50
5966;BME280;3009;43.224;27.976;2023-03-13T09:09:00;101203.97;;;7.92;45.09
5966;BME280;3009;43.224;27.976;2023-03-13T09:11:29;101197.84;;;7.81;45.76
5966;BME280;3009;43.224;27.976;2023-03-13T09:13:58;101197.06;;;7.70;48.34
5966;BME280;3009;43.224;27.976;2023-03-13T09:16:30;101192.22;;;7.77;47.79
5966;BME280;3009;43.224;27.976;2023-03-13T09:18:59;101196.50;;;7.78;47.41
5966;BME280;3009;43.224;27.976;2023-03-13T09:21:29;101188.72;;;8.13;47.55
5966;BME280;3009;43.224;27.976;2023-03-13T09:23:59;101192.19;;;8.19;47.97
5966;BME280;3009;43.224;27.976;2023-03-13T09:26:28;101186.06;;;7.97;48.99
5966;BME280;3009;43.224;27.976;2023-03-13T09:28:56;101190.91;;;7.70;49.22
5966;BME280;3009;43.224;27.976;2023-03-13T09:31:26;101186.06;;;7.97;50.23
5966;BME280;3009;43.224;27.976;2023-03-13T09:33:57;101185.19;;;8.28;50.23
5966;BME280;3009;43.224;27.976;2023-03-13T09:36:27;101191.31;;;8.49;50.28
5966;BME280;3009;43.224;27.976;2023-03-13T09:38:57;101198.78;;;8.42;50.06
5966;BME280;3009;43.224;27.976;2023-03-13T09:41:31;101197.78;;;8.12;50.81
5966;BME280;3009;43.224;27.976;2023-03-13T09:44:04;101204.16;;;8.37;52.05
5966;BME280;3009;43.224;27.976;2023-03-13T09:46:38;101209.25;;;8.28;50.19
5966;BME280;3009;43.224;27.976;2023-03-13T09:49:15;101224.00;;;7.84;50.41
5966;BME280;3009;43.224;27.976;2023-03-13T09:51:53;101209.06;;;7.68;52.20
5966;BME280;3009;43.224;27.976;2023-03-13T09:54:26;101225.63;;;7.85;51.35
5966;BME280;3009;43.224;27.976;2023-03-13T09:56:56;101222.41;;;7.78;50.10
5966;BME280;3009;43.224;27.976;2023-03-13T09:59:29;101218.63;;;8.10;49.58
5966;BME280;3009;43.224;27.976;2023-03-13T10:02:06;101215.44;;;8.03;50.37
5966;BME280;3009;43.224;27.976;2023-03-13T10:04:45;101214.84;;;8.26;51.72
5966;BME280;3009;43.224;27.976;2023-03-13T10:07:15;101200.16;;;8.29;51.69
5966;BME280;3009;43.224;27.976;2023-03-13T10:09:43;101210.56;;;8.36;51.51
5966;BME280;3009;43.224;27.976;2023-03-13T10:12:15;101216.50;;;7.96;49.92
5966;BME280;3009;43.224;27.976;2023-03-13T10:14:53;101225.34;;;7.61;51.82
5966;BME280;3009;43.224;27.976;2023-03-13T10:17:31;101216.53;;;7.45;53.02
5966;BME280;3009;43.224;27.976;2023-03-13T10:20:22;101207.72;;;7.50;51.90
5966;BME280;3009;43.224;27.976;2023-03-13T10:22:51;101210.63;;;7.89;53.07
5966;BME280;3009;43.224;27.976;2023-03-13T10:25:27;101193.31;;;7.76;53.92
5966;BME280;3009;43.224;27.976;2023-03-13T10:27:59;101205.59;;;7.93;53.17
5966;BME280;3009;43.224;27.976;2023-03-13T10:30:30;101199.69;;;7.91;52.44
5966;BME280;3009;43.224;27.976;2023-03-13T10:32:59;101195.38;;;8.10;51.91
5966;BME280;3009;43.224;27.976;2023-03-13T10:35:34;101186.84;;;8.19;52.33
5966;BME280;3009;43.224;27.976;2023-03-13T10:38:05;101192.41;;;8.32;52.23
5966;BME280;3009;43.224;27.976;2023-03-13T10:40:36;101180.75;;;7.87;53.12
5966;BME280;3009;43.224;27.976;2023-03-13T10:43:06;101186.09;;;7.87;54.11
5966;BME280;3009;43.224;27.976;2023-03-13T10:45:40;101179.59;;;8.19;54.52
5966;BME280;3009;43.224;27.976;2023-03-13T10:48:13;101179.63;;;8.14;53.23
5966;BME280;3009;43.224;27.976;2023-03-13T10:50:45;101172.94;;;8.11;52.98
5966;BME280;3009;43.224;27.976;2023-03-13T10:53:25;101180.16;;;8.16;52.53
5966;BME280;3009;43.224;27.976;2023-03-13T10:55:56;101174.78;;;8.21;52.59
5966;BME280;3009;43.224;27.976;2023-03-13T10:58:29;101172.69;;;8.03;53.42
5966;BME280;3009;43.224;27.976;2023-03-13T11:01:15;101173.22;;;8.10;52.57
5966;BME280;3009;43.224;27.976;2023-03-13T11:03:45;101163.91;;;8.02;53.03
5966;BME280;3009;43.224;27.976;2023-03-13T11:06:28;101170.00;;;8.23;54.28
5966;BME280;3009;43.224;27.976;2023-03-13T11:09:09;101167.00;;;8.30;53.51
5966;BME280;3009;43.224;27.976;2023-03-13T11:11:47;101161.41;;;8.31;53.47
5966;BME280;3009;43.224;27.976;2023-03-13T11:14:17;101162.50;;;8.20;53.80
5966;BME280;3009;43.224;27.976;2023-03-13T11:16:48;101150.28;;;7.93;54.03
5966;BME280;3009;43.224;27.976;2023-03-13T11:19:28;101158.25;;;8.14;54.56
5966;BME280;3009;43.224;27.976;2023-03-13T11:22:10;101140.25;;;8.40;53.10
5966;BME280;3009;43.224;27.976;2023-03-13T11:24:45;101141.16;;;8.10;53.77
5966;BME280;3009;43.224;27.976;2023-03-13T11:27:24;101145.47;;;8.11;55.87
5966;BME280;3009;43.224;27.976;2023-03-13T11:30:05;101129.75;;;7.89;55.84
5966;BME280;3009;43.224;27.976;2023-03-13T11:32:41;101130.81;;;7.93;57.08
5966;BME280;3009;43.224;27.976;2023-03-13T11:35:20;101125.22;;;7.84;55.18
5966;BME280;3009;43.224;27.976;2023-03-13T11:37:55;101123.66;;;7.68;55.75
5966;BME280;3009;43.224;27.976;2023-03-13T11:40:30;101121.22;;;7.81;55.80
5966;BME280;3009;43.224;27.976;2023-03-13T11:43:07;101104.47;;;7.24;56.88
5966;BME280;3009;43.224;27.976;2023-03-13T11:46:14;101118.31;;;7.57;57.14
5966;BME280;3009;43.224;27.976;2023-03-13T11:49:07;101108.75;;;7.20;55.75
5966;BME280;3009;43.224;27.976;2023-03-13T11:51:51;101111.94;;;7.43;55.43
5966;BME280;3009;43.224;27.976;2023-03-13T11:54:44;101106.63;;;7.33;55.15
5966;BME280;3009;43.224;27.976;2023-03-13T11:57:22;101111.63;;;7.65;55.04
5966;BME280;3009;43.224;27.976;2023-03-13T12:03:01;101102.53;;;7.71;54.71
5966;BME280;3009;43.224;27.976;2023-03-13T12:05:40;101109.25;;;7.58;55.82
5966;BME280;3009;43.224;27.976;2023-03-13T12:08:16;101110.31;;;7.62;55.50
5966;BME280;3009;43.224;27.976;2023-03-13T12:10:51;101104.47;;;7.35;56.27
5966;BME280;3009;43.224;27.976;2023-03-13T12:13:27;101113.75;;;7.68;56.34
5966;BME280;3009;43.224;27.976;2023-03-13T12:16:01;101106.56;;;7.74;55.79
5966;BME280;3009;43.224;27.976;2023-03-13T12:18:35;101097.50;;;7.65;56.36
5966;BME280;3009;43.224;27.976;2023-03-13T12:21:13;101098.59;;;7.48;56.79
5966;BME280;3009;43.224;27.976;2023-03-13T12:23:49;101100.44;;;7.63;57.81
5966;BME280;3009;43.224;27.976;2023-03-13T12:26:26;101102.03;;;7.64;56.26
5966;BME280;3009;43.224;27.976;2023-03-13T12:29:07;101098.34;;;7.34;57.26
5966;BME280;3009;43.224;27.976;2023-03-13T12:31:46;101099.63;;;7.57;56.48
5966;BME280;3009;43.224;27.976;2023-03-13T12:34:22;101103.41;;;7.41;57.77
5966;BME280;3009;43.224;27.976;2023-03-13T12:37:09;101098.06;;;7.41;56.92
5966;BME280;3009;43.224;27.976;2023-03-13T12:39:44;101101.53;;;7.36;57.92
5966;BME280;3009;43.224;27.976;2023-03-13T12:42:25;101089.53;;;7.28;58.23
5966;BME280;3009;43.224;27.976;2023-03-13T12:44:58;101093.00;;;7.44;58.65
5966;BME280;3009;43.224;27.976;2023-03-13T12:47:31;101093.81;;;7.40;59.35
5966;BME280;3009;43.224;27.976;2023-03-13T12:50:19;101094.88;;;7.28;59.87
5966;BME280;3009;43.224;27.976;2023-03-13T12:53:11;101092.75;;;7.36;60.12
5966;BME280;3009;43.224;27.976;2023-03-13T12:58:47;101092.47;;;7.37;57.77
5966;BME280;3009;43.224;27.976;2023-03-13T13:01:28;101099.13;;;7.50;58.43
5966;BME280;3009;43.224;27.976;2023-03-13T13:04:02;101090.09;;;7.20;59.28
5966;BME280;3009;43.224;27.976;2023-03-13T13:06:53;101098.63;;;7.22;59.66
5966;BME280;3009;43.224;27.976;2023-03-13T13:09:24;101094.06;;;7.23;59.03
5966;BME280;3009;43.224;27.976;2023-03-13T13:11:55;101085.28;;;7.17;60.11
5966;BME280;3009;43.224;27.976;2023-03-13T13:14:57;101090.06;;;7.41;60.20
5966;BME280;3009;43.224;27.976;2023-03-13T13:20:36;101083.94;;;7.09;60.92
5966;BME280;3009;43.224;27.976;2023-03-13T13:23:29;101088.47;;;7.24;60.62
5966;BME280;3009;43.224;27.976;2023-03-13T13:32:41;101069.81;;;7.14;58.76
5966;BME280;3009;43.224;27.976;2023-03-13T13:35:26;101073.00;;;7.16;58.32
5966;BME280;3009;43.224;27.976;2023-03-13T13:38:26;101067.66;;;7.32;58.13
5966;BME280;3009;43.224;27.976;2023-03-13T13:44:21;101073.28;;;7.35;55.98
5966;BME280;3009;43.224;27.976;2023-03-13T13:46:52;101078.34;;;7.32;55.79
5966;BME280;3009;43.224;27.976;2023-03-13T13:49:28;101076.75;;;7.10;56.59
5966;BME280;3009;43.224;27.976;2023-03-13T13:52:32;101066.34;;;7.03;57.46
5966;BME280;3009;43.224;27.976;2023-03-13T13:55:15;101062.88;;;7.08;54.90